Time;durP1;ratioP1;P1;durP2;ratioP2;P2;SDS_P1;SDS_P2;PMS_P1;PMS_P2;Temp;Humidity;BMP_temperature;BMP_pressure;BME280_temperature;BME280_humidity;BME280_pressure;Samples;Min_cycle;Max_cycle;Signal;HPM_P1;HPM_P2
2023/01/21 00:01:46;;;;;;;29.25;14.55;;;-1.90;99.90;;;;;;5024519;28;20495;-80
2023/01/21 00:04:11;;;;;;;26.63;12.27;;;-1.90;99.90;;;;;;5022254;28;20033;-81
2023/01/21 00:06:37;;;;;;;28.08;12.73;;;-2.00;99.90;;;;;;5023954;28;20040;-81
2023/01/21 00:09:03;;;;;;;27.95;13.25;;;-2.00;99.90;;;;;;5024412;28;20041;-80
2023/01/21 00:11:29;;;;;;;46.53;29.13;;;-2.10;99.90;;;;;;5024985;28;20100;-81
2023/01/21 00:13:54;;;;;;;24.75;11.85;;;-2.10;99.90;;;;;;5039073;28;20087;-80
2023/01/21 00:16:20;;;;;;;30.85;12.65;;;-2.10;99.90;;;;;;5041342;28;20040;-81
2023/01/21 00:18:48;;;;;;;26.27;13.38;;;-2.20;99.90;;;;;;5033633;28;20083;-81
2023/01/21 00:21:14;;;;;;;24.50;12.38;;;-2.20;99.90;;;;;;5024893;28;20036;-80
2023/01/21 00:23:40;;;;;;;26.70;13.00;;;-2.20;99.90;;;;;;5022917;28;20567;-81
2023/01/21 00:26:07;;;;;;;29.65;13.55;;;-2.30;99.90;;;;;;5022860;28;20498;-81
2023/01/21 00:28:34;;;;;;;29.70;13.32;;;-2.30;99.90;;;;;;5025362;28;20405;-80
2023/01/21 00:31:02;;;;;;;27.45;13.65;;;-2.30;99.90;;;;;;5024995;28;20052;-81
2023/01/21 00:33:29;;;;;;;29.70;12.85;;;-2.30;99.90;;;;;;5040874;28;20037;-82
2023/01/21 00:35:59;;;;;;;29.63;13.65;;;-2.30;99.90;;;;;;5040109;28;20045;-81
2023/01/21 00:38:24;;;;;;;48.88;31.08;;;-2.30;99.90;;;;;;5025074;28;20041;-80
2023/01/21 00:40:50;;;;;;;22.58;11.52;;;-2.30;99.90;;;;;;5025672;28;20041;-81
2023/01/21 00:43:16;;;;;;;26.48;12.60;;;-2.40;99.90;;;;;;5041924;28;20096;-81
2023/01/21 00:45:41;;;;;;;28.63;11.40;;;-2.40;99.90;;;;;;5038592;28;20029;-81
2023/01/21 00:48:07;;;;;;;27.75;13.60;;;-2.40;99.90;;;;;;5033783;28;20045;-80
2023/01/21 00:50:32;;;;;;;32.10;14.20;;;-2.40;99.90;;;;;;5033588;28;20033;-80
2023/01/21 00:52:58;;;;;;;25.45;12.18;;;-2.40;99.90;;;;;;5042084;28;20086;-80
2023/01/21 00:55:23;;;;;;;28.60;13.40;;;-2.50;99.90;;;;;;5018345;28;20552;-80
2023/01/21 00:57:51;;;;;;;31.58;13.68;;;-2.50;99.90;;;;;;5020771;28;20108;-80
2023/01/21 01:00:18;;;;;;;29.42;13.10;;;-2.50;99.90;;;;;;5020512;28;20083;-80
2023/01/21 01:02:44;;;;;;;26.88;12.27;;;-2.50;99.90;;;;;;5040297;28;20048;-80
2023/01/21 01:05:09;;;;;;;24.20;12.82;;;-2.50;99.90;;;;;;5019545;28;20045;-80
2023/01/21 01:07:35;;;;;;;30.38;13.07;;;-2.60;99.90;;;;;;5015778;28;20029;-80
2023/01/21 01:10:01;;;;;;;29.40;13.65;;;-2.50;99.90;;;;;;5033568;28;20046;-81
2023/01/21 01:12:27;;;;;;;43.10;17.50;;;-2.40;99.90;;;;;;5037917;28;20068;-80
2023/01/21 01:14:53;;;;;;;31.55;14.95;;;-2.30;99.90;;;;;;5021214;28;20509;-80
2023/01/21 01:17:19;;;;;;;36.67;15.98;;;-2.10;99.90;;;;;;5020794;28;20041;-80
2023/01/21 01:19:44;;;;;;;34.25;15.27;;;-2.00;99.90;;;;;;5036567;28;20335;-80
2023/01/21 01:22:10;;;;;;;32.15;13.43;;;-1.90;99.90;;;;;;5018263;28;20132;-80
2023/01/21 01:24:35;;;;;;;30.42;14.50;;;-1.80;99.90;;;;;;5023747;28;20127;-81
2023/01/21 01:27:01;;;;;;;37.90;14.43;;;-1.70;99.90;;;;;;5037021;28;20044;-81
2023/01/21 01:29:27;;;;;;;71.15;39.05;;;-1.60;99.90;;;;;;5020387;28;20041;-80
2023/01/21 01:31:53;;;;;;;75.15;40.20;;;-1.50;99.90;;;;;;5019945;28;20040;-81
2023/01/21 01:34:18;;;;;;;41.10;18.63;;;-1.40;99.90;;;;;;5026916;28;20043;-80
2023/01/21 01:36:44;;;;;;;36.75;13.02;;;-1.40;99.90;;;;;;5019816;28;20132;-80
2023/01/21 01:39:10;;;;;;;30.13;10.40;;;-1.40;99.90;;;;;;5020740;28;20037;-81
2023/01/21 01:41:35;;;;;;;78.72;41.00;;;-1.40;99.90;;;;;;5020505;28;20044;-81
2023/01/21 01:44:04;;;;;;;40.40;15.95;;;-1.30;99.90;;;;;;5027683;28;20123;-80
2023/01/21 01:46:35;;;;;;;39.95;15.68;;;-1.30;99.90;;;;;;5033719;28;20041;-81
2023/01/21 01:49:15;;;;;;;37.08;14.98;;;-1.30;99.90;;;;;;5019813;28;20055;-81
2023/01/21 01:51:53;;;;;;;78.63;40.67;;;-1.30;99.90;;;;;;5032073;28;20429;-81
2023/01/21 01:54:33;;;;;;;36.47;15.10;;;-1.30;99.90;;;;;;5018139;28;20125;-81
2023/01/21 01:57:01;;;;;;;36.47;15.48;;;-1.20;99.90;;;;;;5037881;28;20040;-81
2023/01/21 01:59:28;;;;;;;38.17;16.05;;;-1.20;99.90;;;;;;5021395;28;20037;-81
2023/01/21 02:01:55;;;;;;;36.92;15.82;;;-1.20;99.90;;;;;;5020659;28;20060;-81
2023/01/21 02:04:24;;;;;;;78.63;40.17;;;-1.20;99.90;;;;;;5027859;28;20407;-81
2023/01/21 02:06:53;;;;;;;79.20;39.60;;;-1.20;99.90;;;;;;5020670;28;20091;-80
2023/01/21 02:09:18;;;;;;;87.70;41.03;;;-1.10;99.90;;;;;;5021422;28;20032;-81
2023/01/21 02:11:44;;;;;;;30.98;14.10;;;-1.10;99.90;;;;;;5021313;28;20059;-81
2023/01/21 02:14:10;;;;;;;32.97;15.18;;;-1.10;99.90;;;;;;5043943;28;20067;-81
2023/01/21 02:16:45;;;;;;;40.65;16.27;;;-1.10;99.90;;;;;;5038953;28;20037;-81
2023/01/21 02:19:24;;;;;;;44.35;16.25;;;-1.20;99.90;;;;;;5022337;28;20041;-81
2023/01/21 02:22:12;;;;;;;77.07;40.38;;;-1.20;99.90;;;;;;5021539;28;20029;-81
2023/01/21 02:25:12;;;;;;;41.80;15.98;;;-1.20;99.90;;;;;;5042563;28;20503;-81
2023/01/21 02:27:49;;;;;;;76.55;39.60;;;-1.20;99.90;;;;;;5038665;28;20041;-81
2023/01/21 02:30:40;;;;;;;76.00;39.15;;;-1.20;99.90;;;;;;5023409;28;20136;-81
2023/01/21 02:33:40;;;;;;;78.45;40.47;;;-1.20;99.90;;;;;;5029515;28;20080;-81
2023/01/21 02:36:34;;;;;;;79.22;40.60;;;-1.10;99.90;;;;;;5021201;28;20063;-81
2023/01/21 02:39:13;;;;;;;35.72;15.82;;;-1.10;99.90;;;;;;5039134;28;20041;-81
2023/01/21 02:42:12;;;;;;;81.72;39.95;;;-1.10;99.90;;;;;;5026422;28;20049;-81
2023/01/21 02:45:15;;;;;;;77.80;40.55;;;-1.00;99.90;;;;;;5039092;28;20037;-81
2023/01/21 02:47:55;;;;;;;79.80;39.35;;;-1.00;99.90;;;;;;5018943;28;20041;-81
2023/01/21 02:50:30;;;;;;;30.65;14.65;;;-1.00;99.90;;;;;;5023455;28;20044;-81
2023/01/21 02:53:00;;;;;;;35.28;15.15;;;-1.00;99.90;;;;;;5031807;28;20682;-81
2023/01/21 02:55:37;;;;;;;38.90;16.80;;;-1.00;99.90;;;;;;5025005;28;20041;-81
2023/01/21 02:58:15;;;;;;;43.40;16.10;;;-1.00;99.90;;;;;;5024175;28;20037;-81
2023/01/21 03:01:07;;;;;;;42.70;16.05;;;-1.00;99.90;;;;;;5024614;28;20112;-81
2023/01/21 03:03:55;;;;;;;80.35;40.05;;;-1.00;99.90;;;;;;5022953;28;20055;-81
2023/01/21 03:06:53;;;;;;;41.10;17.13;;;-0.90;99.90;;;;;;5015209;28;20039;-80
2023/01/21 03:09:21;;;;;;;45.63;15.52;;;-0.90;99.90;;;;;;5024410;28;20045;-81
2023/01/21 03:12:04;;;;;;;87.15;39.72;;;-0.90;99.90;;;;;;5053581;28;20546;-82
2023/01/21 03:18:23;;;;;;;91.70;40.13;;;-0.80;99.90;;;;;;5009938;28;20128;-81
2023/01/21 03:21:00;;;;;;;43.30;15.73;;;-0.80;99.90;;;;;;5038329;28;20091;-81
2023/01/21 03:23:29;;;;;;;87.78;40.22;;;-0.80;99.90;;;;;;5024160;28;20029;-81
2023/01/21 03:25:57;;;;;;;88.32;40.25;;;-0.70;99.90;;;;;;5021379;28;20120;-81
2023/01/21 03:28:26;;;;;;;93.60;40.50;;;-0.70;99.90;;;;;;5039116;28;20119;-81
2023/01/21 03:30:59;;;;;;;35.95;14.60;;;-0.70;99.90;;;;;;5038468;28;20037;-81
2023/01/21 03:33:26;;;;;;;88.18;40.80;;;-0.70;99.90;;;;;;5030811;28;20033;-81
2023/01/21 03:35:54;;;;;;;90.35;40.05;;;-0.70;99.90;;;;;;5019484;28;20495;-81
2023/01/21 03:38:30;;;;;;;85.75;40.53;;;-0.60;99.90;;;;;;5022810;28;20116;-81
2023/01/21 03:41:00;;;;;;;35.83;14.80;;;-0.60;99.90;;;;;;5022884;28;20399;-81
2023/01/21 03:43:26;;;;;;;38.78;15.45;;;-0.60;99.90;;;;;;5030446;28;20033;-81
2023/01/21 03:46:03;;;;;;;87.75;39.08;;;-0.60;99.90;;;;;;5021183;28;20108;-81
2023/01/21 03:48:56;;;;;;;35.05;13.35;;;-0.60;99.90;;;;;;5023106;28;20041;-81
2023/01/21 03:51:26;;;;;;;;;;;-0.60;99.90;;;;;;5031257;28;20120;-81
2023/01/21 03:53:56;;;;;;;39.22;14.73;;;-0.60;99.90;;;;;;5033724;28;19967;-81
2023/01/21 03:56:23;;;;;;;36.83;14.50;;;-0.60;99.90;;;;;;5022128;28;20099;-81
2023/01/21 03:58:49;;;;;;;24.48;11.02;;;-0.60;99.90;;;;;;5030649;28;20106;-81
2023/01/21 04:01:14;;;;;;;79.40;35.42;;;-0.50;99.90;;;;;;5039874;28;20033;-81
2023/01/21 04:03:42;;;;;;;83.18;36.38;;;-0.50;99.90;;;;;;5038346;28;20033;-81
2023/01/21 04:06:14;;;;;;;83.10;37.53;;;-0.50;99.90;;;;;;5022902;28;20067;-81
2023/01/21 04:08:40;;;;;;;85.10;38.17;;;-0.40;99.90;;;;;;5030893;28;20048;-81
2023/01/21 04:11:05;;;;;;;44.22;15.18;;;-0.40;99.90;;;;;;5038366;28;20371;-81
2023/01/21 04:13:31;;;;;;;89.95;39.45;;;-0.50;99.90;;;;;;5039965;28;20327;-81
2023/01/21 04:15:57;;;;;;;91.85;41.55;;;-0.50;99.90;;;;;;5022466;28;20041;-81
2023/01/21 04:18:22;;;;;;;88.50;41.40;;;-0.50;99.90;;;;;;5042160;28;20379;-81
2023/01/21 04:20:48;;;;;;;49.17;18.35;;;-0.60;99.90;;;;;;5032179;28;20056;-82
2023/01/21 04:23:13;;;;;;;90.93;41.65;;;-0.60;99.90;;;;;;5025610;28;20040;-81
2023/01/21 04:25:39;;;;;;;103.20;42.58;;;-0.60;99.90;;;;;;5018524;28;20091;-81
2023/01/21 04:28:05;;;;;;;101.28;44.05;;;-0.60;99.90;;;;;;5030180;28;20086;-81
2023/01/21 04:30:30;;;;;;;110.13;42.95;;;-0.60;99.90;;;;;;5040889;28;20041;-81
2023/01/21 04:32:56;;;;;;;96.25;42.70;;;-0.50;99.90;;;;;;5057126;28;20052;-81
2023/01/21 04:35:21;;;;;;;48.88;19.50;;;-0.60;99.90;;;;;;5064997;23;20501;-77
2023/01/21 04:37:47;;;;;;;88.25;42.03;;;-0.60;99.90;;;;;;5049167;28;20033;-77
2023/01/21 04:40:16;;;;;;;91.32;41.40;;;-0.60;99.90;;;;;;5055559;28;20127;-77
2023/01/21 04:42:42;;;;;;;50.92;19.25;;;-0.60;99.90;;;;;;5052191;28;20048;-77
2023/01/21 04:45:08;;;;;;;47.03;18.15;;;-0.60;99.90;;;;;;5040873;28;20033;-77
2023/01/21 04:47:34;;;;;;;51.38;18.52;;;-0.60;99.90;;;;;;5027730;28;20449;-77
2023/01/21 04:50:00;;;;;;;50.65;19.05;;;-0.60;99.90;;;;;;5018913;28;20040;-77
2023/01/21 04:52:26;;;;;;;49.85;17.73;;;-0.60;99.90;;;;;;5018994;28;20044;-77
2023/01/21 04:54:52;;;;;;;44.85;18.60;;;-0.60;99.90;;;;;;5013456;28;20502;-77
2023/01/21 04:57:18;;;;;;;55.13;19.35;;;-0.60;99.90;;;;;;5033251;28;20033;-77
2023/01/21 04:59:43;;;;;;;91.72;41.25;;;-0.60;99.90;;;;;;5017532;28;20041;-77
2023/01/21 05:02:09;;;;;;;94.10;40.83;;;-0.60;99.90;;;;;;5034962;28;20147;-77
2023/01/21 05:04:38;;;;;;;91.85;41.45;;;-0.60;99.90;;;;;;5032924;28;20040;-77
2023/01/21 05:07:04;;;;;;;95.22;42.45;;;-0.60;99.90;;;;;;5022978;28;20033;-77
2023/01/21 05:09:29;;;;;;;98.25;41.97;;;-0.70;99.90;;;;;;5041019;28;20045;-77
2023/01/21 05:11:58;;;;;;;92.40;41.60;;;-0.70;99.90;;;;;;5017635;28;20047;-77
2023/01/21 05:14:24;;;;;;;45.28;18.08;;;-0.70;99.90;;;;;;5017461;28;20065;-77
2023/01/21 05:16:49;;;;;;;43.03;17.35;;;-0.70;99.90;;;;;;5022278;28;20568;-77
2023/01/21 05:19:15;;;;;;;86.13;40.40;;;-0.70;99.90;;;;;;5042682;28;20069;-77
2023/01/21 05:21:44;;;;;;;95.93;41.33;;;-0.70;99.90;;;;;;5018593;28;20406;-77
2023/01/21 05:24:09;;;;;;;46.13;17.67;;;-0.70;99.90;;;;;;5016520;28;20048;-77
2023/01/21 05:26:35;;;;;;;45.63;16.92;;;-0.70;99.90;;;;;;5016709;28;20408;-77
2023/01/21 05:29:01;;;;;;;91.40;40.70;;;-0.70;99.90;;;;;;5016097;28;20068;-77
2023/01/21 05:31:26;;;;;;;77.55;38.92;;;-0.80;99.90;;;;;;5051067;28;20099;-77
2023/01/21 05:33:52;;;;;;;42.00;17.25;;;-0.70;99.90;;;;;;5048981;28;20045;-77
2023/01/21 05:36:18;;;;;;;42.67;16.95;;;-0.80;99.90;;;;;;5017194;28;20071;-77
2023/01/21 05:38:43;;;;;;;42.10;17.10;;;-0.80;99.90;;;;;;5025658;28;20059;-77
2023/01/21 05:41:09;;;;;;;50.58;20.25;;;-0.80;99.90;;;;;;5016194;28;20044;-77
2023/01/21 05:43:35;;;;;;;83.57;40.00;;;-0.80;99.90;;;;;;5017888;28;20064;-77
2023/01/21 05:46:01;;;;;;;43.42;17.67;;;-0.80;99.90;;;;;;5039483;28;20483;-77
2023/01/21 05:48:28;;;;;;;85.78;38.90;;;-0.80;99.90;;;;;;5022706;28;20039;-77
2023/01/21 05:50:57;;;;;;;42.30;15.85;;;-0.80;99.90;;;;;;5014085;28;20125;-77
2023/01/21 05:53:25;;;;;;;85.35;37.53;;;-0.80;99.90;;;;;;5035247;28;20256;-77
2023/01/21 05:55:55;;;;;;;79.97;37.65;;;-0.80;99.90;;;;;;5044734;28;20044;-77
2023/01/21 05:58:22;;;;;;;89.10;38.70;;;-0.70;99.90;;;;;;5017349;28;20048;-77
2023/01/21 06:00:50;;;;;;;36.38;16.42;;;-0.80;99.90;;;;;;5011967;28;20504;-76
2023/01/21 06:03:17;;;;;;;38.03;15.27;;;-0.70;99.90;;;;;;5014342;28;20390;-77
2023/01/21 06:05:44;;;;;;;40.35;14.40;;;-0.70;99.90;;;;;;5017802;28;20037;-77
2023/01/21 06:08:10;;;;;;;43.28;15.82;;;-0.70;99.90;;;;;;5033907;28;20127;-77
2023/01/21 06:10:36;;;;;;;78.28;32.20;;;-0.60;99.90;;;;;;5031195;28;20112;-77
2023/01/21 06:13:04;;;;;;;65.45;30.13;;;-0.60;99.90;;;;;;5017208;28;20490;-77
2023/01/21 06:15:33;;;;;;;72.13;31.20;;;-0.60;99.90;;;;;;5050501;28;20045;-77
2023/01/21 06:18:00;;;;;;;29.83;11.45;;;-0.50;99.90;;;;;;5050529;28;20066;-77
2023/01/21 06:20:29;;;;;;;34.60;11.35;;;-0.50;99.90;;;;;;5034078;28;20546;-76
2023/01/21 06:22:55;;;;;;;57.28;25.92;;;-0.50;99.90;;;;;;5021864;28;20033;-77
2023/01/21 06:25:25;;;;;;;35.92;11.52;;;-0.40;99.90;;;;;;5032377;28;20115;-77
2023/01/21 06:27:53;;;;;;;30.55;10.93;;;-0.50;99.90;;;;;;5017437;28;20041;-77
2023/01/21 06:30:19;;;;;;;64.18;27.55;;;-0.50;99.90;;;;;;5015095;28;20064;-77
2023/01/21 06:32:45;;;;;;;63.10;27.48;;;-0.40;99.90;;;;;;5037600;28;20125;-77
2023/01/21 06:35:10;;;;;;;65.93;28.20;;;-0.50;99.90;;;;;;5051811;28;20124;-77
2023/01/21 06:37:38;;;;;;;33.63;11.02;;;-0.40;99.90;;;;;;5054249;28;20040;-77
2023/01/21 06:40:05;;;;;;;37.30;11.98;;;-0.40;99.90;;;;;;5042244;28;20502;-77
2023/01/21 06:42:30;;;;;;;37.63;12.55;;;-0.50;99.90;;;;;;5021068;28;20041;-77
2023/01/21 06:44:58;;;;;;;73.28;29.08;;;-0.40;99.90;;;;;;5019098;28;20043;-78
2023/01/21 06:47:27;;;;;;;73.55;28.20;;;-0.40;99.90;;;;;;5022374;28;20076;-77
2023/01/21 06:49:52;;;;;;;73.03;27.95;;;-0.40;99.90;;;;;;5038063;28;20116;-78
2023/01/21 06:52:21;;;;;;;70.50;28.95;;;-0.40;99.90;;;;;;5021088;28;20463;-77
2023/01/21 06:54:47;;;;;;;72.65;27.27;;;-0.40;99.90;;;;;;5020888;28;20045;-77
2023/01/21 06:57:15;;;;;;;32.67;11.57;;;-0.40;99.90;;;;;;5020684;28;20056;-77
2023/01/21 06:59:41;;;;;;;74.68;26.75;;;-0.40;99.90;;;;;;5019181;28;20041;-77
2023/01/21 07:02:11;;;;;;;36.08;12.32;;;-0.40;99.90;;;;;;5019548;28;20371;-77
2023/01/21 07:04:36;;;;;;;31.95;10.80;;;-0.40;99.90;;;;;;5042329;28;20041;-77
2023/01/21 07:07:02;;;;;;;39.58;14.57;;;-0.40;99.90;;;;;;5020822;28;20104;-77
2023/01/21 07:09:30;;;;;;;78.15;30.00;;;-0.30;99.90;;;;;;5018767;28;20040;-77
2023/01/21 07:11:56;;;;;;;72.20;27.65;;;-0.30;99.90;;;;;;5025511;28;20044;-77
2023/01/21 07:14:21;;;;;;;80.22;29.77;;;-0.40;99.90;;;;;;5020851;28;20047;-77
2023/01/21 07:16:50;;;;;;;41.20;13.07;;;-0.40;99.90;;;;;;5021272;28;20044;-77
2023/01/21 07:19:16;;;;;;;79.70;28.92;;;-0.40;99.90;;;;;;5017585;28;20033;-77
2023/01/21 07:21:41;;;;;;;80.68;28.73;;;-0.40;99.90;;;;;;5019280;28;20033;-76
2023/01/21 07:24:12;;;;;;;72.95;28.52;;;-0.40;99.90;;;;;;5018402;28;20797;-76
2023/01/21 07:26:38;;;;;;;79.88;29.83;;;-0.40;99.90;;;;;;5032343;28;20037;-75
2023/01/21 07:29:05;;;;;;;81.32;30.15;;;-0.30;99.90;;;;;;5019224;28;20052;-75
2023/01/21 07:31:31;;;;;;;82.47;29.67;;;-0.30;99.90;;;;;;5033869;28;20130;-78
2023/01/21 07:33:57;;;;;;;50.53;14.85;;;-0.30;99.90;;;;;;5037992;28;20040;-75
2023/01/21 07:36:22;;;;;;;84.75;31.00;;;-0.30;99.90;;;;;;5031836;28;20048;-76
2023/01/21 07:38:51;;;;;;;80.47;31.10;;;-0.40;99.90;;;;;;5017832;28;20075;-76
2023/01/21 07:41:17;;;;;;;80.72;29.40;;;-0.30;99.90;;;;;;5019390;28;20464;-76
2023/01/21 07:43:46;;;;;;;88.43;32.03;;;-0.30;99.90;;;;;;5018390;28;20190;-76
2023/01/21 07:46:20;;;;;;;35.05;12.65;;;-0.30;99.90;;;;;;5018911;28;20040;-77
2023/01/21 07:48:48;;;;;;;37.50;13.48;;;-0.30;99.90;;;;;;5035797;28;20098;-76
2023/01/21 07:51:23;;;;;;;80.93;30.02;;;-0.30;99.90;;;;;;5014955;28;20380;-76
2023/01/21 07:54:05;;;;;;;40.65;13.43;;;-0.30;99.90;;;;;;5017326;28;20037;-76
2023/01/21 07:56:36;;;;;;;43.88;13.20;;;-0.30;99.90;;;;;;5030551;28;20502;-77
2023/01/21 07:59:30;;;;;;;84.25;29.92;;;-0.30;99.90;;;;;;5016881;28;20041;-77
2023/01/21 08:02:04;;;;;;;36.80;11.88;;;-0.30;99.90;;;;;;5018258;28;20522;-75
2023/01/21 08:04:32;;;;;;;31.58;12.38;;;-0.30;99.90;;;;;;5009711;28;20041;-76
2023/01/21 08:07:07;;;;;;;77.30;29.33;;;-0.30;99.90;;;;;;5016107;28;20033;-77
2023/01/21 08:09:44;;;;;;;83.15;30.77;;;-0.30;99.90;;;;;;5025617;28;20120;-77
2023/01/21 08:12:12;;;;;;;36.47;12.98;;;-0.20;99.90;;;;;;5019204;28;20056;-77
2023/01/21 08:14:38;;;;;;;41.35;14.10;;;-0.20;99.90;;;;;;5035766;28;20090;-77
2023/01/21 08:17:07;;;;;;;79.65;30.98;;;-0.20;99.90;;;;;;5041863;28;20072;-76
2023/01/21 08:19:32;;;;;;;71.10;29.02;;;-0.20;99.90;;;;;;5029941;28;20069;-77
2023/01/21 08:22:04;;;;;;;74.25;31.35;;;-0.20;99.90;;;;;;5052489;28;20124;-77
2023/01/21 08:24:32;;;;;;;76.80;29.83;;;-0.20;99.90;;;;;;5051206;28;20099;-77
2023/01/21 08:27:09;;;;;;;84.78;29.98;;;-0.20;99.90;;;;;;5043317;28;20200;-77
2023/01/21 08:29:35;;;;;;;86.25;31.80;;;-0.20;99.90;;;;;;5052565;28;20041;-77
2023/01/21 08:32:07;;;;;;;45.30;13.00;;;-0.10;99.90;;;;;;5052387;28;20041;-77
2023/01/21 08:34:36;;;;;;;39.63;14.18;;;-0.10;99.90;;;;;;5051784;28;20322;-77
2023/01/21 08:37:01;;;;;;;83.45;31.98;;;-0.10;99.90;;;;;;5023706;28;20466;-77
2023/01/21 08:39:27;;;;;;;81.13;31.58;;;-0.10;99.90;;;;;;5021398;28;20132;-77
2023/01/21 08:41:55;;;;;;;78.55;30.48;;;-0.10;99.90;;;;;;5019903;28;20045;-78
2023/01/21 08:44:26;;;;;;;81.88;30.63;;;0.00;99.90;;;;;;5017299;28;20422;-77
2023/01/21 08:46:53;;;;;;;82.78;32.38;;;0.00;99.90;;;;;;5014652;28;20041;-77
2023/01/21 08:49:22;;;;;;;76.47;31.80;;;0.00;99.90;;;;;;5031647;28;20041;-77
2023/01/21 08:52:09;;;;;;;79.78;31.88;;;0.00;99.90;;;;;;5014350;28;20403;-77
2023/01/21 08:54:35;;;;;;;79.88;31.38;;;0.10;99.90;;;;;;5031174;28;20052;-77
2023/01/21 08:57:03;;;;;;;44.13;15.02;;;0.10;99.90;;;;;;5018343;28;20040;-77
2023/01/21 08:59:37;;;;;;;83.85;32.70;;;0.10;99.90;;;;;;5019763;28;21710;-77
2023/01/21 09:02:07;;;;;;;44.35;15.25;;;0.10;99.90;;;;;;5020412;28;20072;-77
2023/01/21 09:04:35;;;;;;;85.28;33.33;;;0.10;99.90;;;;;;5018509;28;20051;-78
2023/01/21 09:07:29;;;;;;;83.22;33.30;;;0.10;99.90;;;;;;5035606;28;20100;-79
2023/01/21 09:10:59;;;;;;;80.88;33.83;;;0.10;99.90;;;;;;5043139;28;20090;-77
2023/01/21 09:13:06;;;;;;;39.00;14.50;;;0.20;99.90;;;;;;5029743;28;20044;-77
2023/01/21 09:15:43;;;;;;;90.88;34.80;;;0.20;99.90;;;;;;5034389;28;20045;-78
2023/01/21 09:18:19;;;;;;;46.83;16.27;;;0.30;99.90;;;;;;5027049;28;20049;-75
2023/01/21 09:21:07;;;;;;;81.15;32.60;;;0.30;99.90;;;;;;5014746;28;20064;-75
2023/01/21 09:23:37;;;;;;;77.45;33.15;;;0.20;99.90;;;;;;4997996;28;20622;-75
2023/01/21 09:26:19;;;;;;;77.38;33.13;;;0.40;99.90;;;;;;5015056;28;20574;-75
2023/01/21 09:31:52;;;;;;;76.18;32.67;;;0.50;99.90;;;;;;5028620;28;20041;-75
2023/01/21 09:34:18;;;;;;;43.50;14.98;;;0.40;99.90;;;;;;5043692;28;20064;-74
2023/01/21 09:36:44;;;;;;;41.15;14.20;;;0.50;99.90;;;;;;5014747;28;20045;-74
2023/01/21 09:39:09;;;;;;;78.70;32.08;;;0.40;99.90;;;;;;5024844;28;20044;-74
2023/01/21 09:41:47;;;;;;;75.65;33.35;;;0.40;99.90;;;;;;5011434;28;20064;-75
2023/01/21 09:44:28;;;;;;;80.32;34.88;;;0.50;99.90;;;;;;5017477;28;20517;-75
2023/01/21 09:47:04;;;;;;;82.18;33.22;;;0.50;99.90;;;;;;5031891;28;20045;-74
2023/01/21 09:49:40;;;;;;;50.05;15.73;;;0.60;99.90;;;;;;5020131;28;20077;-75
2023/01/21 09:52:20;;;;;;;78.18;34.55;;;0.50;99.90;;;;;;5029201;28;20043;-75
2023/01/21 09:54:45;;;;;;;73.82;32.53;;;0.60;99.90;;;;;;5025613;28;20060;-74
2023/01/21 09:57:14;;;;;;;71.78;31.98;;;0.60;99.90;;;;;;5032065;28;20033;-74
2023/01/21 09:59:48;;;;;;;81.90;34.67;;;0.70;99.90;;;;;;5038562;28;20041;-75
2023/01/21 10:02:38;;;;;;;70.97;33.83;;;0.70;99.90;;;;;;5030989;28;20045;-74
2023/01/21 10:05:13;;;;;;;64.45;32.25;;;0.80;99.90;;;;;;5017048;28;20057;-75
2023/01/21 10:08:06;;;;;;;71.30;32.33;;;0.80;99.90;;;;;;5031969;28;20037;-74
2023/01/21 10:10:53;;;;;;;70.90;33.28;;;0.80;99.90;;;;;;5016067;28;20048;-74
2023/01/21 10:13:34;;;;;;;77.28;34.08;;;0.80;99.90;;;;;;5016694;28;20041;-75
2023/01/21 10:16:22;;;;;;;68.25;32.58;;;0.90;99.90;;;;;;5021569;28;20155;-75
2023/01/21 10:18:51;;;;;;;74.57;33.50;;;0.90;99.90;;;;;;5017387;28;20384;-74
2023/01/21 10:21:23;;;;;;;73.60;34.00;;;0.90;99.90;;;;;;5016785;28;20386;-74
2023/01/21 10:23:56;;;;;;;67.13;32.53;;;1.00;99.90;;;;;;5032877;28;20063;-75
2023/01/21 10:26:24;;;;;;;84.05;33.80;;;0.90;99.90;;;;;;5014105;28;20091;-74
2023/01/21 10:28:52;;;;;;;70.30;34.40;;;0.90;99.90;;;;;;5004330;28;20503;-74
2023/01/21 10:31:25;;;;;;;69.60;33.22;;;0.90;99.90;;;;;;5017463;28;20095;-75
2023/01/21 10:33:51;;;;;;;82.13;37.03;;;0.90;99.90;;;;;;5014382;28;20041;-74
2023/01/21 10:36:49;;;;;;;119.88;35.53;;;0.90;99.90;;;;;;5037558;23;20076;-76
2023/01/21 10:39:53;;;;;;;188.85;34.33;;;0.90;99.90;;;;;;4994057;28;20034;-75
2023/01/21 10:42:53;;;;;;;196.10;35.45;;;0.90;99.90;;;;;;4991770;28;20092;-76
2023/01/21 10:45:24;;;;;;;167.40;34.40;;;0.80;99.90;;;;;;5022444;28;20120;-76
2023/01/21 10:48:13;;;;;;;186.10;33.95;;;0.70;99.90;;;;;;5013832;28;20172;-76
2023/01/21 10:50:47;;;;;;;155.70;39.10;;;0.60;99.90;;;;;;5012295;28;20045;-76
2023/01/21 10:53:33;;;;;;;196.52;43.55;;;0.60;99.90;;;;;;4996576;28;20411;-76
2023/01/21 10:56:03;;;;;;;149.85;39.97;;;0.50;99.90;;;;;;5013817;28;20061;-76
2023/01/21 10:58:39;;;;;;;154.50;35.97;;;0.50;99.90;;;;;;5011438;28;20492;-75
2023/01/21 11:01:12;;;;;;;131.35;31.67;;;0.50;99.90;;;;;;5012644;28;20381;-75
2023/01/21 11:03:42;;;;;;;;;;;0.60;99.90;;;;;;5010178;28;20124;-75
2023/01/21 11:06:11;;;;;;;138.10;32.88;;;0.60;99.90;;;;;;5012140;28;19921;-76
2023/01/21 11:08:38;;;;;;;92.53;29.05;;;0.70;99.90;;;;;;5013326;28;20033;-76
2023/01/21 11:11:06;;;;;;;91.25;29.83;;;0.70;99.90;;;;;;5013592;28;20083;-76
2023/01/21 11:13:32;;;;;;;165.98;33.30;;;0.70;99.90;;;;;;5011500;28;20042;-75
2023/01/21 11:15:59;;;;;;;98.85;31.65;;;0.70;99.90;;;;;;5014656;28;20056;-79
2023/01/21 11:18:40;;;;;;;106.45;29.85;;;0.80;99.90;;;;;;5007888;28;20044;-78
2023/01/21 11:21:18;;;;;;;118.65;32.92;;;0.80;99.90;;;;;;5015200;28;20048;-76
2023/01/21 11:23:55;;;;;;;92.75;32.80;;;0.80;99.90;;;;;;5017022;28;20045;-75
2023/01/21 11:26:28;;;;;;;96.28;31.15;;;0.90;99.90;;;;;;5010695;28;20037;-76
2023/01/21 11:29:08;;;;;;;82.22;31.70;;;0.90;99.90;;;;;;5018960;28;20056;-76
2023/01/21 11:31:34;;;;;;;65.28;29.77;;;0.90;99.90;;;;;;5015744;28;20495;-76
2023/01/21 11:34:15;;;;;;;64.47;30.10;;;0.90;99.90;;;;;;5017638;28;20445;-76
2023/01/21 11:37:02;;;;;;;63.05;30.13;;;0.90;99.90;;;;;;5017399;28;20041;-75
2023/01/21 11:39:33;;;;;;;57.65;30.38;;;0.90;99.90;;;;;;5010981;28;20038;-77
2023/01/21 11:42:12;;;;;;;76.32;32.60;;;0.90;99.90;;;;;;4998079;28;20037;-75
2023/01/21 11:44:56;;;;;;;68.18;31.42;;;1.00;99.90;;;;;;5016914;28;20041;-76
2023/01/21 11:47:45;;;;;;;51.50;28.85;;;1.00;99.90;;;;;;5015985;28;20043;-76
2023/01/21 11:50:17;;;;;;;54.00;29.45;;;1.10;99.90;;;;;;5016969;28;20135;-81
2023/01/21 11:52:43;;;;;;;59.05;29.50;;;1.30;99.90;;;;;;5014196;28;20668;-76
2023/01/21 11:55:19;;;;;;;56.63;28.58;;;1.40;99.90;;;;;;5014964;28;20041;-80
2023/01/21 11:57:57;;;;;;;49.38;29.58;;;1.50;99.90;;;;;;5015566;28;20041;-75
2023/01/21 12:00:26;;;;;;;46.20;28.27;;;1.50;99.90;;;;;;4997891;28;20083;-79
2023/01/21 12:03:00;;;;;;;46.78;28.85;;;1.60;99.90;;;;;;5014386;28;20558;-76
2023/01/21 12:05:38;;;;;;;48.42;28.95;;;1.70;99.90;;;;;;5015122;28;20030;-75
2023/01/21 12:08:05;;;;;;;50.42;30.45;;;1.70;99.90;;;;;;5012519;28;20045;-76
2023/01/21 12:10:43;;;;;;;49.78;27.52;;;1.70;99.90;;;;;;5012885;28;20056;-75
2023/01/21 12:13:21;;;;;;;47.90;27.40;;;1.60;99.90;;;;;;5013138;28;20045;-76
2023/01/21 12:16:11;;;;;;;84.82;29.33;;;1.70;99.90;;;;;;5012923;28;20041;-76
2023/01/21 12:18:45;;;;;;;42.05;26.13;;;1.80;99.90;;;;;;5012835;28;20048;-75
2023/01/21 12:21:17;;;;;;;45.65;27.77;;;1.90;99.90;;;;;;4998122;28;20033;-75
2023/01/21 12:24:01;;;;;;;50.22;27.40;;;1.90;99.90;;;;;;5016263;28;20033;-75
2023/01/21 12:26:34;;;;;;;46.55;29.10;;;1.90;99.90;;;;;;5015167;28;20076;-76
2023/01/21 12:29:24;;;;;;;41.83;26.63;;;1.90;99.90;;;;;;5015740;28;20095;-76
2023/01/21 12:32:00;;;;;;;39.53;27.27;;;1.90;99.90;;;;;;5015569;28;20419;-75
2023/01/21 12:34:44;;;;;;;42.47;28.65;;;1.90;99.90;;;;;;5015056;28;20045;-75
2023/01/21 12:37:34;;;;;;;45.25;28.90;;;1.80;99.90;;;;;;5015540;28;20045;-76
2023/01/21 12:40:12;;;;;;;37.83;27.27;;;1.90;99.90;;;;;;5015282;28;20457;-75
2023/01/21 12:42:42;;;;;;;38.78;27.02;;;2.00;99.90;;;;;;5014917;28;20033;-76
2023/01/21 12:45:50;;;;;;;36.53;25.80;;;2.20;99.90;;;;;;5015472;28;20507;-76
2023/01/21 12:48:27;;;;;;;36.55;26.13;;;2.40;99.90;;;;;;4977370;28;20388;-76
2023/01/21 12:51:00;;;;;;;36.83;27.58;;;2.50;99.90;;;;;;5015491;28;20042;-76
2023/01/21 12:53:52;;;;;;;34.28;25.83;;;2.70;99.90;;;;;;5015697;28;20041;-76
2023/01/21 12:56:39;;;;;;;33.83;24.75;;;2.80;99.90;;;;;;5014787;28;20087;-76
2023/01/21 12:59:15;;;;;;;32.67;24.75;;;2.80;99.90;;;;;;5015085;28;20084;-76
2023/01/21 13:02:04;;;;;;;32.63;25.02;;;2.70;99.90;;;;;;5014520;28;20040;-75